Terminal Aerodrome Forecast
Issued by NWS Brownsville, TX

Home | Current Version | Previous Version | Text Only | Print | Product List | Glossary On
Versions: 1 2 3 4 5 6 7 8 9 10 11 12 13 14 15 16 17 18
084
FTUS44 KBRO 191720
TAFMFE
TAF
KMFE 191720Z 1918/2018 16016G22KT P6SM SCT025
     FM200300 13010KT P6SM VCSH BKN020
     FM200600 VRB05KT 5SM BR VCTS OVC025CB
      TEMPO 2006/2009 VRB15G40KT 1SM +TSRA SQ OVC015CB
     FM200900 VRB05KT 4SM TSRA OVC015CB
     FM201200 19006KT P6SM VCTS OVC025CB=

USA.gov is the U.S. government's official web portal to all federal, state and local government web resources and services.